sensor_id;sensor_type;location;lat;lon;timestamp;temperature;humidity
20839;DHT22;10580;51.092;6.828;2023-04-01T00:00:30;10.20;81.90
20839;DHT22;10580;51.092;6.828;2023-04-01T00:02:56;10.20;94.60
20839;DHT22;10580;51.092;6.828;2023-04-01T00:05:22;10.60;83.50
20839;DHT22;10580;51.092;6.828;2023-04-01T00:07:49;10.20;71.50
20839;DHT22;10580;51.092;6.828;2023-04-01T00:10:15;10.10;72.20
20839;DHT22;10580;51.092;6.828;2023-04-01T00:12:41;10.20;81.20
20839;DHT22;10580;51.092;6.828;2023-04-01T00:15:08;10.20;76.40
20839;DHT22;10580;51.092;6.828;2023-04-01T00:17:34;10.10;80.60
20839;DHT22;10580;51.092;6.828;2023-04-01T00:20:01;10.10;76.90
20839;DHT22;10580;51.092;6.828;2023-04-01T00:22:28;10.10;85.10
20839;DHT22;10580;51.092;6.828;2023-04-01T00:24:54;10.20;89.20
20839;DHT22;10580;51.092;6.828;2023-04-01T00:27:20;10.20;64.60
20839;DHT22;10580;51.092;6.828;2023-04-01T00:29:46;10.10;69.40
20839;DHT22;10580;51.092;6.828;2023-04-01T00:32:13;10.20;76.90
20839;DHT22;10580;51.092;6.828;2023-04-01T00:34:39;10.10;77.40
20839;DHT22;10580;51.092;6.828;2023-04-01T00:37:05;10.10;74.90
20839;DHT22;10580;51.092;6.828;2023-04-01T00:39:31;10.10;82.60
20839;DHT22;10580;51.092;6.828;2023-04-01T00:41:58;10.00;85.20
20839;DHT22;10580;51.092;6.828;2023-04-01T00:44:26;10.10;84.30
20839;DHT22;10580;51.092;6.828;2023-04-01T00:46:52;10.10;78.10
20839;DHT22;10580;51.092;6.828;2023-04-01T00:49:21;10.10;89.20
20839;DHT22;10580;51.092;6.828;2023-04-01T00:51:51;10.10;82.90
20839;DHT22;10580;51.092;6.828;2023-04-01T00:54:19;10.10;87.20
20839;DHT22;10580;51.092;6.828;2023-04-01T00:59:36;10.10;84.20
20839;DHT22;10580;51.092;6.828;2023-04-01T01:02:05;10.10;85.10
20839;DHT22;10580;51.092;6.828;2023-04-01T01:04:33;10.10;66.70
20839;DHT22;10580;51.092;6.828;2023-04-01T01:12:30;10.10;73.70
20839;DHT22;10580;51.092;6.828;2023-04-01T01:15:08;10.10;85.00
20839;DHT22;10580;51.092;6.828;2023-04-01T01:28:44;10.10;92.90
20839;DHT22;10580;51.092;6.828;2023-04-01T01:31:37;10.10;95.60
20839;DHT22;10580;51.092;6.828;2023-04-01T01:34:19;10.10;99.90
20839;DHT22;10580;51.092;6.828;2023-04-01T01:36:52;10.10;99.90
20839;DHT22;10580;51.092;6.828;2023-04-01T01:39:19;10.10;96.40
20839;DHT22;10580;51.092;6.828;2023-04-01T01:41:47;10.10;99.90
20839;DHT22;10580;51.092;6.828;2023-04-01T01:44:16;10.00;99.90
20839;DHT22;10580;51.092;6.828;2023-04-01T01:46:42;10.00;99.90
20839;DHT22;10580;51.092;6.828;2023-04-01T01:49:10;10.00;99.90
20839;DHT22;10580;51.092;6.828;2023-04-01T01:51:37;9.90;99.90
20839;DHT22;10580;51.092;6.828;2023-04-01T01:54:02;9.90;99.90
20839;DHT22;10580;51.092;6.828;2023-04-01T01:56:29;9.90;99.90
20839;DHT22;10580;51.092;6.828;2023-04-01T01:59:00;9.90;99.90
20839;DHT22;10580;51.092;6.828;2023-04-01T02:01:31;9.80;99.90
20839;DHT22;10580;51.092;6.828;2023-04-01T02:03:58;9.80;99.90
20839;DHT22;10580;51.092;6.828;2023-04-01T02:06:26;9.70;99.90
20839;DHT22;10580;51.092;6.828;2023-04-01T02:09:00;9.70;99.90
20839;DHT22;10580;51.092;6.828;2023-04-01T02:11:39;9.70;99.90
20839;DHT22;10580;51.092;6.828;2023-04-01T02:14:11;9.70;99.90
20839;DHT22;10580;51.092;6.828;2023-04-01T02:16:46;9.60;99.90
20839;DHT22;10580;51.092;6.828;2023-04-01T02:19:13;9.60;99.90
20839;DHT22;10580;51.092;6.828;2023-04-01T02:21:50;9.60;99.90
20839;DHT22;10580;51.092;6.828;2023-04-01T02:24:23;9.60;99.90
20839;DHT22;10580;51.092;6.828;2023-04-01T02:26:51;9.50;99.90
20839;DHT22;10580;51.092;6.828;2023-04-01T02:29:22;9.60;99.90
20839;DHT22;10580;51.092;6.828;2023-04-01T02:31:55;9.60;99.90
20839;DHT22;10580;51.092;6.828;2023-04-01T02:34:22;9.50;99.90
20839;DHT22;10580;51.092;6.828;2023-04-01T02:36:52;9.50;99.90
20839;DHT22;10580;51.092;6.828;2023-04-01T02:39:20;9.50;99.90
20839;DHT22;10580;51.092;6.828;2023-04-01T02:41:46;9.50;99.90
20839;DHT22;10580;51.092;6.828;2023-04-01T02:44:14;9.50;99.90
20839;DHT22;10580;51.092;6.828;2023-04-01T02:46:43;9.50;99.90
20839;DHT22;10580;51.092;6.828;2023-04-01T02:49:11;9.50;99.90
20839;DHT22;10580;51.092;6.828;2023-04-01T02:51:42;9.50;99.90
20839;DHT22;10580;51.092;6.828;2023-04-01T02:54:12;9.50;99.90
20839;DHT22;10580;51.092;6.828;2023-04-01T02:56:38;9.50;99.90
20839;DHT22;10580;51.092;6.828;2023-04-01T02:59:03;9.50;99.90
20839;DHT22;10580;51.092;6.828;2023-04-01T03:01:29;9.50;99.90
20839;DHT22;10580;51.092;6.828;2023-04-01T03:03:55;9.50;99.90
20839;DHT22;10580;51.092;6.828;2023-04-01T03:06:23;9.50;99.90
20839;DHT22;10580;51.092;6.828;2023-04-01T03:08:52;9.60;99.90
20839;DHT22;10580;51.092;6.828;2023-04-01T03:11:17;9.60;99.90
20839;DHT22;10580;51.092;6.828;2023-04-01T03:13:43;9.60;99.90
20839;DHT22;10580;51.092;6.828;2023-04-01T03:16:09;9.50;99.90
20839;DHT22;10580;51.092;6.828;2023-04-01T03:18:37;9.50;99.90
20839;DHT22;10580;51.092;6.828;2023-04-01T03:21:16;9.50;99.90
20839;DHT22;10580;51.092;6.828;2023-04-01T03:23:42;9.50;99.90
20839;DHT22;10580;51.092;6.828;2023-04-01T03:26:08;9.60;99.90
20839;DHT22;10580;51.092;6.828;2023-04-01T03:28:39;9.60;99.90
20839;DHT22;10580;51.092;6.828;2023-04-01T03:31:05;9.60;99.90
20839;DHT22;10580;51.092;6.828;2023-04-01T03:33:33;9.60;99.90
20839;DHT22;10580;51.092;6.828;2023-04-01T03:35:59;9.60;99.90
20839;DHT22;10580;51.092;6.828;2023-04-01T03:38:27;9.60;99.90
20839;DHT22;10580;51.092;6.828;2023-04-01T03:40:53;9.60;99.90
20839;DHT22;10580;51.092;6.828;2023-04-01T03:43:21;9.60;99.90
20839;DHT22;10580;51.092;6.828;2023-04-01T03:45:50;9.60;99.90
20839;DHT22;10580;51.092;6.828;2023-04-01T03:48:18;9.60;99.90
20839;DHT22;10580;51.092;6.828;2023-04-01T03:50:50;9.50;99.90
20839;DHT22;10580;51.092;6.828;2023-04-01T03:53:21;9.50;99.90
20839;DHT22;10580;51.092;6.828;2023-04-01T03:55:52;9.50;99.90
20839;DHT22;10580;51.092;6.828;2023-04-01T03:58:22;9.50;99.90
20839;DHT22;10580;51.092;6.828;2023-04-01T04:00:47;9.50;99.90
20839;DHT22;10580;51.092;6.828;2023-04-01T04:03:19;9.40;99.90
20839;DHT22;10580;51.092;6.828;2023-04-01T04:08:41;9.40;99.90
20839;DHT22;10580;51.092;6.828;2023-04-01T04:11:10;9.40;99.90
20839;DHT22;10580;51.092;6.828;2023-04-01T04:13:38;9.40;99.90
20839;DHT22;10580;51.092;6.828;2023-04-01T04:16:13;9.40;99.90
20839;DHT22;10580;51.092;6.828;2023-04-01T04:18:41;9.40;99.90
20839;DHT22;10580;51.092;6.828;2023-04-01T04:21:07;9.40;99.90
20839;DHT22;10580;51.092;6.828;2023-04-01T04:23:35;9.40;99.90
20839;DHT22;10580;51.092;6.828;2023-04-01T04:26:10;9.40;99.90
20839;DHT22;10580;51.092;6.828;2023-04-01T04:28:39;9.50;99.90
20839;DHT22;10580;51.092;6.828;2023-04-01T04:31:25;9.40;99.90
20839;DHT22;10580;51.092;6.828;2023-04-01T04:33:59;9.50;99.90
20839;DHT22;10580;51.092;6.828;2023-04-01T04:36:41;9.40;99.90
20839;DHT22;10580;51.092;6.828;2023-04-01T04:39:14;9.40;99.90
20839;DHT22;10580;51.092;6.828;2023-04-01T04:41:43;9.50;99.90
20839;DHT22;10580;51.092;6.828;2023-04-01T04:44:09;9.50;99.90
20839;DHT22;10580;51.092;6.828;2023-04-01T04:46:37;9.50;99.90
20839;DHT22;10580;51.092;6.828;2023-04-01T04:49:08;9.40;99.90
20839;DHT22;10580;51.092;6.828;2023-04-01T04:51:36;9.50;99.90
20839;DHT22;10580;51.092;6.828;2023-04-01T04:54:05;9.50;99.90
20839;DHT22;10580;51.092;6.828;2023-04-01T04:56:31;9.40;99.90
20839;DHT22;10580;51.092;6.828;2023-04-01T04:58:58;9.40;99.90
20839;DHT22;10580;51.092;6.828;2023-04-01T05:01:24;9.40;99.90
20839;DHT22;10580;51.092;6.828;2023-04-01T05:03:49;9.40;99.90
20839;DHT22;10580;51.092;6.828;2023-04-01T05:06:16;9.40;99.90
20839;DHT22;10580;51.092;6.828;2023-04-01T05:08:43;9.40;99.90
20839;DHT22;10580;51.092;6.828;2023-04-01T05:11:13;9.30;99.90
20839;DHT22;10580;51.092;6.828;2023-04-01T05:13:40;9.30;99.90
20839;DHT22;10580;51.092;6.828;2023-04-01T05:16:15;9.30;99.90
20839;DHT22;10580;51.092;6.828;2023-04-01T05:18:41;9.30;99.90
20839;DHT22;10580;51.092;6.828;2023-04-01T05:21:08;9.30;99.90
20839;DHT22;10580;51.092;6.828;2023-04-01T05:23:35;9.30;99.90
20839;DHT22;10580;51.092;6.828;2023-04-01T05:26:05;9.30;99.90
20839;DHT22;10580;51.092;6.828;2023-04-01T05:28:30;9.30;99.90
20839;DHT22;10580;51.092;6.828;2023-04-01T05:31:04;9.30;99.90
20839;DHT22;10580;51.092;6.828;2023-04-01T05:33:30;9.40;99.90
20839;DHT22;10580;51.092;6.828;2023-04-01T05:35:56;9.30;99.90
20839;DHT22;10580;51.092;6.828;2023-04-01T05:38:22;9.50;99.90
20839;DHT22;10580;51.092;6.828;2023-04-01T05:40:47;9.40;99.90
20839;DHT22;10580;51.092;6.828;2023-04-01T05:43:13;9.40;99.90
20839;DHT22;10580;51.092;6.828;2023-04-01T05:45:39;9.40;99.90
20839;DHT22;10580;51.092;6.828;2023-04-01T05:48:05;9.40;99.90
20839;DHT22;10580;51.092;6.828;2023-04-01T05:50:31;9.40;99.90
20839;DHT22;10580;51.092;6.828;2023-04-01T05:52:56;9.30;99.90
20839;DHT22;10580;51.092;6.828;2023-04-01T05:55:22;9.30;99.90
20839;DHT22;10580;51.092;6.828;2023-04-01T05:57:48;9.40;99.90
20839;DHT22;10580;51.092;6.828;2023-04-01T06:00:15;9.30;99.90
20839;DHT22;10580;51.092;6.828;2023-04-01T06:02:41;9.40;99.90
20839;DHT22;10580;51.092;6.828;2023-04-01T06:05:23;9.40;99.90
20839;DHT22;10580;51.092;6.828;2023-04-01T06:07:58;9.40;99.90
20839;DHT22;10580;51.092;6.828;2023-04-01T06:13:12;9.40;99.90
20839;DHT22;10580;51.092;6.828;2023-04-01T06:16:09;9.40;99.90
20839;DHT22;10580;51.092;6.828;2023-04-01T06:18:42;9.50;99.90
20839;DHT22;10580;51.092;6.828;2023-04-01T06:24:27;9.50;99.90
20839;DHT22;10580;51.092;6.828;2023-04-01T06:29:46;9.50;99.90
20839;DHT22;10580;51.092;6.828;2023-04-01T06:32:27;9.50;99.90
20839;DHT22;10580;51.092;6.828;2023-04-01T06:46:03;9.70;99.90
20839;DHT22;10580;51.092;6.828;2023-04-01T06:56:18;9.80;99.90
20839;DHT22;10580;51.092;6.828;2023-04-01T06:58:51;9.80;99.90
20839;DHT22;10580;51.092;6.828;2023-04-01T07:01:25;9.80;99.90
20839;DHT22;10580;51.092;6.828;2023-04-01T07:03:57;9.80;99.90
20839;DHT22;10580;51.092;6.828;2023-04-01T07:06:26;9.80;99.90
20839;DHT22;10580;51.092;6.828;2023-04-01T07:08:55;9.70;99.90
20839;DHT22;10580;51.092;6.828;2023-04-01T07:11:31;9.70;99.90
20839;DHT22;10580;51.092;6.828;2023-04-01T07:16:39;9.70;99.90
20839;DHT22;10580;51.092;6.828;2023-04-01T07:19:12;9.70;99.90
20839;DHT22;10580;51.092;6.828;2023-04-01T07:24:43;9.60;99.90
20839;DHT22;10580;51.092;6.828;2023-04-01T07:27:11;9.60;99.90
20839;DHT22;10580;51.092;6.828;2023-04-01T07:29:37;9.70;99.90
20839;DHT22;10580;51.092;6.828;2023-04-01T07:38:30;9.70;99.90
20839;DHT22;10580;51.092;6.828;2023-04-01T07:47:31;9.80;99.90
20839;DHT22;10580;51.092;6.828;2023-04-01T07:49:52;9.80;99.90
20839;DHT22;10580;51.092;6.828;2023-04-01T07:55:14;9.70;99.90
20839;DHT22;10580;51.092;6.828;2023-04-01T07:58:12;9.70;99.90
20839;DHT22;10580;51.092;6.828;2023-04-01T08:00:51;9.70;99.90
20839;DHT22;10580;51.092;6.828;2023-04-01T08:04:00;9.70;99.90
20839;DHT22;10580;51.092;6.828;2023-04-01T08:15:27;9.70;99.90
20839;DHT22;10580;51.092;6.828;2023-04-01T08:18:08;9.70;99.90
20839;DHT22;10580;51.092;6.828;2023-04-01T08:23:15;9.70;99.90
20839;DHT22;10580;51.092;6.828;2023-04-01T08:25:56;9.70;99.90
20839;DHT22;10580;51.092;6.828;2023-04-01T08:28:43;9.70;99.90
20839;DHT22;10580;51.092;6.828;2023-04-01T08:31:43;9.80;99.90
20839;DHT22;10580;51.092;6.828;2023-04-01T08:34:26;9.80;99.90
20839;DHT22;10580;51.092;6.828;2023-04-01T08:37:07;9.80;99.90
20839;DHT22;10580;51.092;6.828;2023-04-01T08:39:54;9.80;99.90
20839;DHT22;10580;51.092;6.828;2023-04-01T08:42:41;9.80;99.90
20839;DHT22;10580;51.092;6.828;2023-04-01T08:53:51;10.00;99.90
20839;DHT22;10580;51.092;6.828;2023-04-01T08:56:50;9.90;99.90
20839;DHT22;10580;51.092;6.828;2023-04-01T09:07:45;10.10;99.90
20839;DHT22;10580;51.092;6.828;2023-04-01T09:13:31;10.10;99.90
20839;DHT22;10580;51.092;6.828;2023-04-01T09:16:22;10.10;99.90
20839;DHT22;10580;51.092;6.828;2023-04-01T09:19:19;10.10;99.90
20839;DHT22;10580;51.092;6.828;2023-04-01T09:22:09;10.00;99.90
20839;DHT22;10580;51.092;6.828;2023-04-01T09:38:22;10.10;99.90
20839;DHT22;10580;51.092;6.828;2023-04-01T09:41:07;10.10;99.90
20839;DHT22;10580;51.092;6.828;2023-04-01T09:49:57;10.00;99.90
20839;DHT22;10580;51.092;6.828;2023-04-01T09:55:16;10.00;99.90
20839;DHT22;10580;51.092;6.828;2023-04-01T10:09:31;10.10;99.90
20839;DHT22;10580;51.092;6.828;2023-04-01T10:20:31;10.20;99.90
20839;DHT22;10580;51.092;6.828;2023-04-01T10:25:57;10.10;99.90
20839;DHT22;10580;51.092;6.828;2023-04-01T10:34:27;10.30;99.90
20839;DHT22;10580;51.092;6.828;2023-04-01T10:37:15;10.30;99.90
20839;DHT22;10580;51.092;6.828;2023-04-01T10:40:48;10.30;99.90
20839;DHT22;10580;51.092;6.828;2023-04-01T10:46:29;10.30;99.90
20839;DHT22;10580;51.092;6.828;2023-04-01T11:03:21;10.30;99.90
20839;DHT22;10580;51.092;6.828;2023-04-01T11:09:39;10.40;99.90
20839;DHT22;10580;51.092;6.828;2023-04-01T11:26:09;10.80;99.90
20839;DHT22;10580;51.092;6.828;2023-04-01T11:31:45;10.50;99.90
20839;DHT22;10580;51.092;6.828;2023-04-01T11:37:16;10.70;99.90
20839;DHT22;10580;51.092;6.828;2023-04-01T11:51:44;11.00;99.90
20839;DHT22;10580;51.092;6.828;2023-04-01T11:54:20;11.10;99.90
20839;DHT22;10580;51.092;6.828;2023-04-01T11:59:48;11.10;97.20
20839;DHT22;10580;51.092;6.828;2023-04-01T12:11:07;11.40;71.70
20839;DHT22;10580;51.092;6.828;2023-04-01T12:16:45;11.50;30.90
20839;DHT22;10580;51.092;6.828;2023-04-01T12:22:43;11.30;37.30
20839;DHT22;10580;51.092;6.828;2023-04-01T12:28:23;11.40;47.70
20839;DHT22;10580;51.092;6.828;2023-04-01T12:31:03;11.40;40.20
20839;DHT22;10580;51.092;6.828;2023-04-01T12:33:59;11.50;43.10
20839;DHT22;10580;51.092;6.828;2023-04-01T12:37:28;11.40;37.80
20839;DHT22;10580;51.092;6.828;2023-04-01T12:45:31;11.30;58.50
20839;DHT22;10580;51.092;6.828;2023-04-01T12:48:36;11.10;43.80
20839;DHT22;10580;51.092;6.828;2023-04-01T12:59:58;11.00;99.90
20839;DHT22;10580;51.092;6.828;2023-04-01T13:02:55;11.00;99.90
20839;DHT22;10580;51.092;6.828;2023-04-01T13:14:06;11.00;99.90
20839;DHT22;10580;51.092;6.828;2023-04-01T13:16:45;10.90;99.90
20839;DHT22;10580;51.092;6.828;2023-04-01T13:19:24;10.80;99.90
20839;DHT22;10580;51.092;6.828;2023-04-01T13:24:50;11.00;99.90
20839;DHT22;10580;51.092;6.828;2023-04-01T13:27:19;11.00;99.90
20839;DHT22;10580;51.092;6.828;2023-04-01T13:30:04;10.90;99.90
20839;DHT22;10580;51.092;6.828;2023-04-01T13:35:35;10.90;99.90
20839;DHT22;10580;51.092;6.828;2023-04-01T13:40:58;10.90;99.90
20839;DHT22;10580;51.092;6.828;2023-04-01T13:43:34;10.90;99.90
20839;DHT22;10580;51.092;6.828;2023-04-01T13:48:34;11.00;99.90
20839;DHT22;10580;51.092;6.828;2023-04-01T14:03:43;11.20;92.10
20839;DHT22;10580;51.092;6.828;2023-04-01T14:12:39;11.40;99.20
20839;DHT22;10580;51.092;6.828;2023-04-01T14:41:58;11.20;99.90
20839;DHT22;10580;51.092;6.828;2023-04-01T14:51:30;11.00;99.90
20839;DHT22;10580;51.092;6.828;2023-04-01T14:54:20;10.90;99.90
20839;DHT22;10580;51.092;6.828;2023-04-01T14:57:33;10.90;99.90
20839;DHT22;10580;51.092;6.828;2023-04-01T15:00:16;10.70;99.90
20839;DHT22;10580;51.092;6.828;2023-04-01T15:06:11;10.60;99.90
20839;DHT22;10580;51.092;6.828;2023-04-01T15:25:45;11.00;99.90
20839;DHT22;10580;51.092;6.828;2023-04-01T15:28:34;11.00;99.90
20839;DHT22;10580;51.092;6.828;2023-04-01T16:05:00;10.80;99.90
20839;DHT22;10580;51.092;6.828;2023-04-01T16:08:26;10.80;99.90
20839;DHT22;10580;51.092;6.828;2023-04-01T16:21:48;10.60;99.90
20839;DHT22;10580;51.092;6.828;2023-04-01T16:27:40;10.50;99.90
20839;DHT22;10580;51.092;6.828;2023-04-01T16:30:44;10.50;99.90
20839;DHT22;10580;51.092;6.828;2023-04-01T16:36:42;10.50;99.90
20839;DHT22;10580;51.092;6.828;2023-04-01T16:41:49;10.50;99.90
20839;DHT22;10580;51.092;6.828;2023-04-01T16:44:22;10.40;99.90
20839;DHT22;10580;51.092;6.828;2023-04-01T16:46:55;10.50;99.90
20839;DHT22;10580;51.092;6.828;2023-04-01T16:49:41;10.40;99.90
20839;DHT22;10580;51.092;6.828;2023-04-01T16:57:27;10.30;99.90
20839;DHT22;10580;51.092;6.828;2023-04-01T17:11:19;10.20;99.90
20839;DHT22;10580;51.092;6.828;2023-04-01T17:19:25;10.30;99.90
20839;DHT22;10580;51.092;6.828;2023-04-01T17:22:26;10.30;99.90
20839;DHT22;10580;51.092;6.828;2023-04-01T17:25:20;10.20;99.90
20839;DHT22;10580;51.092;6.828;2023-04-01T17:28:23;10.20;99.90
20839;DHT22;10580;51.092;6.828;2023-04-01T17:33:57;10.10;99.90
20839;DHT22;10580;51.092;6.828;2023-04-01T17:39:49;10.10;99.90
20839;DHT22;10580;51.092;6.828;2023-04-01T17:45:23;10.10;99.90
20839;DHT22;10580;51.092;6.828;2023-04-01T17:48:03;10.10;99.90
20839;DHT22;10580;51.092;6.828;2023-04-01T18:01:51;9.90;99.90
20839;DHT22;10580;51.092;6.828;2023-04-01T18:04:29;9.90;99.90
20839;DHT22;10580;51.092;6.828;2023-04-01T18:15:42;9.70;99.90
20839;DHT22;10580;51.092;6.828;2023-04-01T18:23:57;9.70;99.90
20839;DHT22;10580;51.092;6.828;2023-04-01T18:26:28;9.60;99.90
20839;DHT22;10580;51.092;6.828;2023-04-01T18:28:56;9.60;99.90
20839;DHT22;10580;51.092;6.828;2023-04-01T18:31:26;9.60;99.90
20839;DHT22;10580;51.092;6.828;2023-04-01T18:34:02;9.60;99.90
20839;DHT22;10580;51.092;6.828;2023-04-01T18:36:57;9.60;99.90
20839;DHT22;10580;51.092;6.828;2023-04-01T18:39:38;9.50;99.90
20839;DHT22;10580;51.092;6.828;2023-04-01T18:44:52;9.50;99.90
20839;DHT22;10580;51.092;6.828;2023-04-01T18:47:40;9.50;99.90
20839;DHT22;10580;51.092;6.828;2023-04-01T18:55:41;9.50;99.90
20839;DHT22;10580;51.092;6.828;2023-04-01T19:07:21;9.50;99.90
20839;DHT22;10580;51.092;6.828;2023-04-01T19:09:44;9.50;99.90
20839;DHT22;10580;51.092;6.828;2023-04-01T19:15:20;9.50;99.90
20839;DHT22;10580;51.092;6.828;2023-04-01T19:20:42;9.50;99.90
20839;DHT22;10580;51.092;6.828;2023-04-01T19:26:20;9.50;99.90
20839;DHT22;10580;51.092;6.828;2023-04-01T19:32:04;9.40;99.90
20839;DHT22;10580;51.092;6.828;2023-04-01T19:34:46;9.40;99.90
20839;DHT22;10580;51.092;6.828;2023-04-01T19:50:57;9.40;99.90
20839;DHT22;10580;51.092;6.828;2023-04-01T19:53:44;9.40;99.90
20839;DHT22;10580;51.092;6.828;2023-04-01T19:56:23;9.40;99.90
20839;DHT22;10580;51.092;6.828;2023-04-01T20:04:45;9.30;99.90
20839;DHT22;10580;51.092;6.828;2023-04-01T20:07:25;9.30;99.90
20839;DHT22;10580;51.092;6.828;2023-04-01T20:15:40;9.30;99.90
20839;DHT22;10580;51.092;6.828;2023-04-01T20:18:18;9.30;99.90
20839;DHT22;10580;51.092;6.828;2023-04-01T20:20:57;9.30;99.90
20839;DHT22;10580;51.092;6.828;2023-04-01T20:23:38;9.40;99.90
20839;DHT22;10580;51.092;6.828;2023-04-01T20:26:11;9.40;99.90
20839;DHT22;10580;51.092;6.828;2023-04-01T20:28:44;9.40;99.90
20839;DHT22;10580;51.092;6.828;2023-04-01T20:34:17;9.30;99.90
20839;DHT22;10580;51.092;6.828;2023-04-01T20:42:34;9.30;99.90
20839;DHT22;10580;51.092;6.828;2023-04-01T20:53:43;9.30;99.90
20839;DHT22;10580;51.092;6.828;2023-04-01T20:59:13;9.30;99.90
20839;DHT22;10580;51.092;6.828;2023-04-01T21:01:50;9.30;99.90
20839;DHT22;10580;51.092;6.828;2023-04-01T21:12:24;9.30;99.90
20839;DHT22;10580;51.092;6.828;2023-04-01T21:15:18;9.30;99.90
20839;DHT22;10580;51.092;6.828;2023-04-01T21:18:19;9.30;99.90
20839;DHT22;10580;51.092;6.828;2023-04-01T21:21:07;9.30;99.90
20839;DHT22;10580;51.092;6.828;2023-04-01T21:46:26;9.40;99.90
20839;DHT22;10580;51.092;6.828;2023-04-01T22:00:19;9.50;99.90
20839;DHT22;10580;51.092;6.828;2023-04-01T22:05:21;9.50;99.90
20839;DHT22;10580;51.092;6.828;2023-04-01T22:10:41;9.40;99.90
20839;DHT22;10580;51.092;6.828;2023-04-01T22:14:14;9.40;99.90
20839;DHT22;10580;51.092;6.828;2023-04-01T22:16:50;9.40;99.90
20839;DHT22;10580;51.092;6.828;2023-04-01T22:22:04;9.30;99.90
20839;DHT22;10580;51.092;6.828;2023-04-01T22:24:35;9.30;99.90
20839;DHT22;10580;51.092;6.828;2023-04-01T22:30:21;9.10;99.90
20839;DHT22;10580;51.092;6.828;2023-04-01T22:32:52;9.10;99.90
20839;DHT22;10580;51.092;6.828;2023-04-01T22:43:10;9.10;99.90
20839;DHT22;10580;51.092;6.828;2023-04-01T22:59:46;8.90;99.90
20839;DHT22;10580;51.092;6.828;2023-04-01T23:02:26;8.90;99.90
20839;DHT22;10580;51.092;6.828;2023-04-01T23:04:56;8.90;99.90
20839;DHT22;10580;51.092;6.828;2023-04-01T23:10:06;8.80;99.90
20839;DHT22;10580;51.092;6.828;2023-04-01T23:12:38;8.80;99.90
20839;DHT22;10580;51.092;6.828;2023-04-01T23:15:12;8.80;99.90
20839;DHT22;10580;51.092;6.828;2023-04-01T23:18:05;8.70;99.90
20839;DHT22;10580;51.092;6.828;2023-04-01T23:23:49;8.70;99.90
20839;DHT22;10580;51.092;6.828;2023-04-01T23:29:17;8.60;99.90
20839;DHT22;10580;51.092;6.828;2023-04-01T23:32:05;8.60;99.90
20839;DHT22;10580;51.092;6.828;2023-04-01T23:34:35;8.50;99.90
20839;DHT22;10580;51.092;6.828;2023-04-01T23:37:12;8.60;99.90
20839;DHT22;10580;51.092;6.828;2023-04-01T23:39:39;8.60;99.90
20839;DHT22;10580;51.092;6.828;2023-04-01T23:42:30;8.50;99.90
20839;DHT22;10580;51.092;6.828;2023-04-01T23:44:58;8.50;99.90
20839;DHT22;10580;51.092;6.828;2023-04-01T23:50:41;8.50;99.90
20839;DHT22;10580;51.092;6.828;2023-04-01T23:53:03;8.60;99.90
20839;DHT22;10580;51.092;6.828;2023-04-01T23:55:32;8.50;99.90
